createdAt,value
2022-08-18T00:02:49.699Z,100.00
2022-08-18T00:05:47.633Z,100.00
2022-08-18T00:08:38.385Z,100.00
2022-08-18T00:11:27.554Z,100.00
2022-08-18T00:14:22.549Z,100.00
2022-08-18T00:17:10.118Z,100.00
2022-08-18T00:19:56.972Z,100.00
2022-08-18T00:22:43.918Z,100.00
2022-08-18T00:25:30.607Z,100.00
2022-08-18T00:28:19.493Z,100.00
2022-08-18T00:31:10.805Z,100.00
2022-08-18T00:33:57.940Z,100.00
2022-08-18T00:36:44.342Z,100.00
2022-08-18T00:39:35.022Z,100.00
2022-08-18T00:42:31.016Z,100.00
2022-08-18T00:45:22.110Z,100.00
2022-08-18T00:48:11.549Z,100.00
2022-08-18T00:51:00.825Z,100.00
2022-08-18T00:53:51.571Z,100.00
2022-08-18T00:56:43.961Z,100.00
2022-08-18T00:59:36.852Z,100.00
2022-08-18T01:02:33.037Z,100.00
2022-08-18T01:05:25.563Z,100.00
2022-08-18T01:08:15.520Z,100.00
2022-08-18T01:11:04.425Z,100.00
2022-08-18T01:13:51.371Z,100.00
2022-08-18T01:16:57.524Z,100.00
2022-08-18T01:20:03.148Z,100.00
2022-08-18T01:23:04.685Z,100.00
2022-08-18T01:26:01.082Z,100.00
2022-08-18T01:28:49.670Z,100.00
2022-08-18T01:31:54.801Z,100.00
2022-08-18T01:34:42.093Z,100.00
2022-08-18T01:37:30.179Z,100.00
2022-08-18T01:41:27.331Z,100.00
2022-08-18T01:43:29.276Z,100.00
2022-08-18T01:46:20.119Z,100.00
2022-08-18T01:49:08.590Z,100.00
2022-08-18T01:51:55.729Z,100.00
2022-08-18T01:54:43.089Z,100.00
2022-08-18T01:57:32.176Z,100.00
2022-08-18T02:00:19.832Z,100.00
2022-08-18T02:03:09.492Z,100.00
2022-08-18T02:06:00.217Z,100.00
2022-08-18T02:08:53.655Z,100.00
2022-08-18T02:11:40.650Z,100.00
2022-08-18T02:14:31.403Z,100.00
2022-08-18T02:17:18.724Z,100.00
2022-08-18T02:20:06.393Z,100.00
2022-08-18T02:22:53.493Z,100.00
2022-08-18T02:25:40.853Z,100.00
2022-08-18T02:28:30.698Z,100.00
2022-08-18T02:31:22.018Z,100.00
2022-08-18T02:34:08.520Z,100.00
2022-08-18T02:36:55.445Z,100.00
2022-08-18T02:39:42.138Z,100.00
2022-08-18T02:42:31.171Z,100.00
2022-08-18T02:45:17.854Z,100.00
2022-08-18T02:48:07.030Z,100.00
2022-08-18T02:51:01.497Z,100.00
2022-08-18T02:53:48.660Z,100.00
2022-08-18T02:56:41.251Z,100.00
2022-08-18T02:59:40.801Z,100.00
2022-08-18T03:02:28.052Z,100.00
2022-08-18T03:05:16.595Z,100.00
2022-08-18T03:08:03.000Z,100.00
2022-08-18T03:10:53.125Z,100.00
2022-08-18T03:13:39.598Z,100.00
2022-08-18T03:16:26.352Z,100.00
2022-08-18T03:19:16.374Z,100.00
2022-08-18T03:22:16.099Z,100.00
2022-08-18T03:25:12.821Z,100.00
2022-08-18T03:27:59.521Z,100.00
2022-08-18T03:30:46.385Z,100.00
2022-08-18T03:33:33.174Z,100.00
2022-08-18T03:36:22.620Z,100.00
2022-08-18T03:39:12.647Z,100.00
2022-08-18T03:42:01.491Z,100.00
2022-08-18T03:44:48.839Z,100.00
2022-08-18T03:47:35.705Z,100.00
2022-08-18T03:50:25.682Z,100.00
2022-08-18T03:53:12.832Z,100.00
2022-08-18T03:56:01.111Z,100.00
2022-08-18T03:58:50.374Z,100.00
2022-08-18T04:01:40.431Z,100.00
2022-08-18T04:04:29.416Z,100.00
2022-08-18T04:07:17.677Z,100.00
2022-08-18T04:10:05.249Z,100.00
2022-08-18T04:12:53.360Z,100.00
2022-08-18T04:15:40.155Z,100.00
2022-08-18T04:18:28.109Z,100.00
2022-08-18T04:21:14.761Z,100.00
2022-08-18T04:24:05.322Z,100.00
2022-08-18T04:26:52.015Z,100.00
2022-08-18T04:29:40.404Z,100.00
2022-08-18T04:32:29.841Z,100.00
2022-08-18T04:35:17.304Z,100.00
2022-08-18T04:38:03.785Z,100.00
2022-08-18T04:40:52.401Z,100.00
2022-08-18T04:43:38.720Z,100.00
2022-08-18T04:46:26.934Z,100.00
2022-08-18T04:49:13.649Z,100.00
2022-08-18T04:52:32.064Z,100.00
2022-08-18T04:55:24.269Z,100.00
2022-08-18T04:58:11.016Z,100.00
2022-08-18T05:01:00.414Z,100.00
2022-08-18T05:03:50.289Z,100.00
2022-08-18T05:06:37.727Z,100.00
2022-08-18T05:09:24.485Z,100.00
2022-08-18T05:12:16.973Z,100.00
2022-08-18T05:15:03.785Z,100.00
2022-08-18T05:17:51.167Z,100.00
2022-08-18T05:20:41.407Z,100.00
2022-08-18T05:23:31.746Z,100.00
2022-08-18T05:26:19.965Z,100.00
2022-08-18T05:29:18.969Z,100.00
2022-08-18T05:32:07.902Z,100.00
2022-08-18T05:34:54.624Z,100.00
2022-08-18T05:37:52.505Z,100.00
2022-08-18T05:40:39.421Z,100.00
2022-08-18T05:43:26.063Z,100.00
2022-08-18T05:46:12.911Z,100.00
2022-08-18T05:49:00.137Z,100.00
2022-08-18T05:51:49.243Z,100.00
2022-08-18T05:54:57.968Z,100.00
2022-08-18T05:57:51.717Z,100.00
2022-08-18T06:00:38.568Z,100.00
2022-08-18T06:03:28.523Z,100.00
2022-08-18T06:06:19.988Z,100.00
2022-08-18T06:09:13.247Z,100.00
2022-08-18T06:12:09.096Z,100.00
2022-08-18T06:15:06.226Z,100.00
2022-08-18T06:18:17.008Z,100.00
2022-08-18T06:21:15.628Z,100.00
2022-08-18T06:24:11.164Z,100.00
2022-08-18T06:27:10.052Z,100.00
2022-08-18T06:30:07.173Z,100.00
2022-08-18T06:33:23.246Z,100.00
2022-08-18T06:36:19.255Z,100.00
2022-08-18T06:39:13.477Z,100.00
2022-08-18T06:42:05.629Z,100.00
2022-08-18T06:44:59.561Z,100.00
2022-08-18T06:47:54.848Z,100.00
2022-08-18T06:50:46.856Z,100.00
2022-08-18T06:53:56.062Z,100.00
2022-08-18T06:56:50.536Z,100.00
2022-08-18T06:59:38.554Z,100.00
2022-08-18T07:02:37.460Z,100.00
2022-08-18T07:05:26.390Z,100.00
2022-08-18T07:08:18.365Z,100.00
2022-08-18T07:11:15.599Z,100.00
2022-08-18T07:14:21.572Z,100.00
2022-08-18T07:17:10.847Z,100.00
2022-08-18T07:20:02.876Z,100.00
2022-08-18T07:22:56.159Z,100.00
2022-08-18T07:25:45.748Z,100.00
2022-08-18T07:28:34.438Z,100.00
2022-08-18T07:31:36.119Z,100.00
2022-08-18T07:34:28.761Z,100.00
2022-08-18T07:37:22.854Z,100.00
2022-08-18T07:40:23.426Z,100.00
2022-08-18T07:43:18.203Z,100.00
2022-08-18T07:46:13.517Z,100.00
2022-08-18T07:49:00.157Z,100.00
2022-08-18T07:51:53.183Z,100.00
2022-08-18T07:57:46.125Z,100.00
2022-08-18T08:00:58.226Z,100.00
2022-08-18T08:03:56.923Z,100.00
2022-08-18T08:07:06.468Z,100.00
2022-08-18T08:10:18.978Z,100.00
2022-08-18T08:13:37.071Z,100.00
2022-08-18T08:16:36.488Z,100.00
2022-08-18T08:20:08.528Z,100.00
2022-08-18T08:23:06.821Z,100.00
2022-08-18T08:26:23.813Z,100.00
2022-08-18T08:29:22.860Z,100.00
2022-08-18T08:32:13.541Z,100.00
2022-08-18T08:35:09.484Z,100.00
2022-08-18T08:38:22.984Z,100.00
2022-08-18T08:41:14.603Z,100.00
2022-08-18T08:44:07.164Z,100.00
2022-08-18T08:46:59.867Z,100.00
2022-08-18T08:49:55.048Z,100.00
2022-08-18T08:52:57.004Z,100.00
2022-08-18T08:55:48.827Z,100.00
2022-08-18T08:58:42.948Z,100.00
2022-08-18T09:01:39.068Z,100.00
2022-08-18T09:04:39.548Z,100.00
2022-08-18T09:08:14.594Z,100.00
2022-08-18T09:11:28.520Z,100.00
2022-08-18T09:14:43.308Z,100.00
2022-08-18T09:17:52.393Z,100.00
2022-08-18T09:20:53.382Z,100.00
2022-08-18T09:23:43.754Z,100.00
2022-08-18T09:26:42.726Z,100.00
2022-08-18T09:29:51.100Z,100.00
2022-08-18T09:32:54.796Z,100.00
2022-08-18T09:36:10.517Z,100.00
2022-08-18T09:39:20.412Z,99.41
2022-08-18T09:42:14.422Z,97.74
2022-08-18T09:45:08.505Z,99.11
2022-08-18T09:51:40.033Z,90.55
2022-08-18T09:54:32.544Z,96.96
2022-08-18T09:57:23.047Z,94.12
2022-08-18T10:00:30.498Z,95.15
2022-08-18T10:03:30.975Z,86.31
2022-08-18T10:06:23.910Z,87.84
2022-08-18T10:09:36.862Z,93.55
2022-08-18T10:12:43.202Z,84.88
2022-08-18T10:15:46.139Z,77.69
2022-08-18T10:18:54.740Z,73.05
2022-08-18T10:22:06.449Z,77.55
2022-08-18T10:24:57.391Z,68.37
2022-08-18T10:27:56.723Z,69.65
2022-08-18T10:31:06.332Z,68.05
2022-08-18T10:34:23.591Z,66.11
2022-08-18T10:37:16.876Z,72.91
2022-08-18T10:40:14.669Z,79.38
2022-08-18T10:43:46.152Z,72.02
2022-08-18T10:46:25.144Z,69.71
2022-08-18T10:49:26.030Z,68.21
2022-08-18T10:52:39.044Z,70.75
2022-08-18T10:55:50.437Z,72.59
2022-08-18T10:58:53.325Z,72.01
2022-08-18T11:01:57.168Z,66.97
2022-08-18T11:04:47.098Z,69.58
2022-08-18T11:14:17.377Z,65.03
2022-08-18T11:17:17.566Z,64.05
2022-08-18T11:20:08.241Z,69.22
2022-08-18T11:22:59.176Z,70.88
2022-08-18T11:25:46.160Z,67.59
2022-08-18T11:28:38.995Z,71.37
2022-08-18T11:31:32.204Z,70.25
2022-08-18T11:34:30.381Z,67.44
2022-08-18T11:37:25.669Z,71.50
2022-08-18T11:43:40.899Z,76.71
2022-08-18T11:46:33.511Z,71.58
2022-08-18T11:49:34.013Z,73.36
2022-08-18T11:52:29.182Z,68.79
2022-08-18T11:55:23.957Z,74.04
2022-08-18T11:58:12.726Z,75.15
2022-08-18T12:01:02.973Z,68.92
2022-08-18T12:03:50.166Z,64.91
2022-08-18T12:06:40.500Z,61.49
2022-08-18T12:10:16.293Z,59.84
2022-08-18T12:12:47.468Z,64.61
2022-08-18T12:15:47.353Z,58.88
2022-08-18T12:18:34.371Z,54.74
2022-08-18T12:21:21.286Z,54.15
2022-08-18T12:24:16.485Z,49.82
2022-08-18T12:27:21.267Z,49.03
2022-08-18T12:30:19.144Z,49.67
2022-08-18T12:33:12.211Z,52.57
2022-08-18T12:35:59.822Z,52.82
2022-08-18T12:38:51.857Z,51.32
2022-08-18T12:41:44.280Z,55.54
2022-08-18T12:44:31.266Z,50.10
2022-08-18T12:47:21.502Z,54.51
2022-08-18T12:50:09.134Z,48.37
2022-08-18T12:52:57.077Z,51.62
2022-08-18T12:55:45.515Z,55.16
2022-08-18T12:58:36.303Z,54.26
2022-08-18T13:01:24.063Z,59.44
2022-08-18T13:04:14.039Z,53.20
2022-08-18T13:07:05.840Z,55.94
2022-08-18T13:09:54.226Z,58.41
2022-08-18T13:12:41.004Z,58.02
2022-08-18T13:15:29.999Z,55.54
2022-08-18T13:18:16.540Z,59.61
2022-08-18T13:21:07.332Z,57.32
2022-08-18T13:23:53.920Z,51.71
2022-08-18T13:26:45.891Z,51.75
2022-08-18T13:29:35.051Z,48.76
2022-08-18T13:32:26.063Z,46.01
2022-08-18T13:35:15.670Z,47.94
2022-08-18T13:38:12.348Z,46.86
2022-08-18T13:41:06.412Z,46.01
2022-08-18T13:43:53.414Z,46.72
2022-08-18T13:46:45.786Z,46.52
2022-08-18T13:49:33.783Z,60.28
2022-08-18T13:52:34.157Z,79.19
2022-08-18T13:55:23.614Z,97.61
2022-08-18T13:58:20.425Z,100.00
2022-08-18T14:01:42.010Z,100.00
2022-08-18T14:04:20.119Z,100.00
2022-08-18T14:07:11.819Z,100.00
2022-08-18T14:10:07.161Z,100.00
2022-08-18T14:13:09.482Z,100.00
2022-08-18T14:16:08.502Z,100.00
2022-08-18T14:19:14.535Z,100.00
2022-08-18T14:22:19.240Z,100.00
2022-08-18T14:25:25.462Z,100.00
2022-08-18T14:28:13.256Z,100.00
2022-08-18T14:31:02.025Z,100.00
2022-08-18T14:33:51.927Z,100.00
2022-08-18T14:36:42.095Z,100.00
2022-08-18T14:39:30.760Z,100.00
2022-08-18T14:42:32.997Z,100.00
2022-08-18T14:45:34.372Z,100.00
2022-08-18T14:48:23.266Z,100.00
2022-08-18T14:51:11.406Z,100.00
2022-08-18T14:53:57.888Z,100.00
2022-08-18T14:56:44.839Z,100.00
2022-08-18T14:59:34.565Z,100.00
2022-08-18T15:02:24.773Z,100.00
2022-08-18T15:05:19.907Z,100.00
2022-08-18T15:08:11.844Z,100.00
2022-08-18T15:10:58.550Z,100.00
2022-08-18T15:13:46.520Z,100.00
2022-08-18T15:16:38.547Z,100.00
2022-08-18T15:19:59.294Z,100.00
2022-08-18T15:22:56.376Z,100.00
2022-08-18T15:25:46.286Z,100.00
2022-08-18T15:28:39.058Z,100.00
2022-08-18T15:34:46.061Z,100.00
2022-08-18T15:37:35.059Z,100.00
2022-08-18T15:40:30.751Z,100.00
2022-08-18T15:43:22.276Z,100.00
2022-08-18T15:46:12.268Z,100.00
2022-08-18T15:49:05.504Z,100.00
2022-08-18T15:51:55.129Z,100.00
2022-08-18T15:54:43.441Z,100.00
2022-08-18T15:57:40.100Z,100.00
2022-08-18T16:00:29.956Z,100.00
2022-08-18T16:03:18.102Z,100.00
2022-08-18T16:06:04.885Z,100.00
2022-08-18T16:08:54.755Z,100.00
2022-08-18T16:11:42.641Z,100.00
2022-08-18T16:14:30.412Z,100.00
2022-08-18T16:17:23.748Z,100.00
2022-08-18T16:20:18.749Z,100.00
2022-08-18T16:23:08.707Z,100.00
2022-08-18T16:26:02.439Z,100.00
2022-08-18T16:28:53.129Z,100.00
2022-08-18T16:31:41.084Z,100.00
2022-08-18T16:34:30.871Z,100.00
2022-08-18T16:37:17.422Z,100.00
2022-08-18T16:40:05.490Z,100.00
2022-08-18T16:42:56.434Z,100.00
2022-08-18T16:45:43.590Z,100.00
2022-08-18T16:48:30.410Z,100.00
2022-08-18T16:51:19.306Z,100.00
2022-08-18T16:54:06.134Z,100.00
2022-08-18T16:56:52.702Z,100.00
2022-08-18T16:59:58.816Z,100.00
2022-08-18T17:03:03.600Z,100.00
2022-08-18T17:05:50.438Z,100.00
2022-08-18T17:08:37.868Z,100.00
2022-08-18T17:11:27.188Z,100.00
2022-08-18T17:14:14.015Z,100.00
2022-08-18T17:17:03.697Z,100.00
2022-08-18T17:19:52.038Z,100.00
2022-08-18T17:22:38.671Z,100.00
2022-08-18T17:25:27.674Z,100.00
2022-08-18T17:28:23.855Z,100.00
2022-08-18T17:31:13.195Z,100.00
2022-08-18T17:34:07.330Z,100.00
2022-08-18T17:36:57.044Z,100.00
2022-08-18T17:39:53.712Z,100.00
2022-08-18T17:42:40.662Z,100.00
2022-08-18T17:45:31.997Z,100.00
2022-08-18T17:48:23.415Z,100.00
2022-08-18T17:51:31.617Z,100.00
2022-08-18T17:54:30.842Z,100.00
2022-08-18T17:57:23.651Z,100.00
2022-08-18T18:00:13.883Z,100.00
2022-08-18T18:03:01.481Z,100.00
2022-08-18T18:05:52.753Z,100.00
2022-08-18T18:08:52.372Z,100.00
2022-08-18T18:11:42.987Z,100.00
2022-08-18T18:14:37.669Z,100.00
2022-08-18T18:17:28.350Z,100.00
2022-08-18T18:20:38.091Z,100.00
2022-08-18T18:23:29.283Z,100.00
2022-08-18T18:26:29.565Z,100.00
2022-08-18T18:29:22.506Z,100.00
2022-08-18T18:32:25.535Z,100.00
2022-08-18T18:35:16.818Z,100.00
2022-08-18T18:38:06.413Z,100.00
2022-08-18T18:40:58.945Z,100.00
2022-08-18T18:43:50.279Z,100.00
2022-08-18T18:46:44.412Z,100.00
2022-08-18T18:49:39.582Z,100.00
2022-08-18T18:52:36.612Z,100.00
2022-08-18T18:55:25.833Z,100.00
2022-08-18T18:58:23.064Z,100.00
2022-08-18T19:01:19.373Z,100.00
2022-08-18T19:04:11.431Z,100.00
2022-08-18T19:07:05.290Z,100.00
2022-08-18T19:10:01.710Z,100.00
2022-08-18T19:12:57.717Z,100.00
2022-08-18T19:15:47.526Z,100.00
2022-08-18T19:18:40.455Z,100.00
2022-08-18T19:22:05.033Z,100.00
2022-08-18T19:24:46.355Z,100.00
2022-08-18T19:27:37.927Z,100.00
2022-08-18T19:30:24.898Z,100.00
2022-08-18T19:33:15.955Z,100.00
2022-08-18T19:36:23.146Z,100.00
2022-08-18T19:39:17.635Z,100.00
2022-08-18T19:42:10.717Z,100.00
2022-08-18T19:45:15.784Z,100.00
2022-08-18T19:48:08.845Z,100.00
2022-08-18T19:51:01.256Z,100.00
2022-08-18T19:54:05.659Z,100.00
2022-08-18T19:57:04.909Z,100.00
2022-08-18T20:00:10.322Z,100.00
2022-08-18T20:03:26.709Z,100.00
2022-08-18T20:06:34.727Z,100.00
2022-08-18T20:09:42.211Z,100.00
2022-08-18T20:12:48.093Z,100.00
2022-08-18T20:15:35.821Z,100.00
2022-08-18T20:18:35.951Z,100.00
2022-08-18T20:21:47.397Z,100.00
2022-08-18T20:25:06.231Z,100.00
2022-08-18T20:28:08.823Z,100.00
2022-08-18T20:31:05.008Z,100.00
2022-08-18T20:34:14.191Z,100.00
2022-08-18T20:37:08.406Z,100.00
2022-08-18T20:39:58.101Z,100.00
2022-08-18T20:42:56.089Z,100.00
2022-08-18T20:46:07.850Z,100.00
2022-08-18T20:49:09.886Z,100.00
2022-08-18T20:52:06.511Z,100.00
2022-08-18T20:55:11.741Z,100.00
2022-08-18T20:58:05.519Z,100.00
2022-08-18T21:00:58.327Z,100.00
2022-08-18T21:03:47.439Z,100.00
2022-08-18T21:06:38.235Z,100.00
2022-08-18T21:09:25.241Z,100.00
2022-08-18T21:12:14.686Z,100.00
2022-08-18T21:15:10.511Z,100.00
2022-08-18T21:18:02.677Z,100.00
2022-08-18T21:20:51.401Z,100.00
2022-08-18T21:23:44.498Z,100.00
2022-08-18T21:26:33.144Z,100.00
2022-08-18T21:29:21.023Z,100.00
2022-08-18T21:32:13.022Z,100.00
2022-08-18T21:35:06.038Z,100.00
2022-08-18T21:37:59.692Z,100.00
2022-08-18T21:40:49.197Z,100.00
2022-08-18T21:43:42.298Z,100.00
2022-08-18T21:46:31.825Z,100.00
2022-08-18T21:49:26.890Z,100.00
2022-08-18T21:52:24.312Z,100.00
2022-08-18T21:55:20.640Z,100.00
2022-08-18T21:58:18.028Z,100.00
2022-08-18T22:01:13.997Z,100.00
2022-08-18T22:04:05.517Z,100.00
2022-08-18T22:06:54.161Z,100.00
2022-08-18T22:10:17.854Z,100.00
2022-08-18T22:13:21.928Z,100.00
2022-08-18T22:16:26.001Z,100.00
2022-08-18T22:19:26.253Z,100.00
2022-08-18T22:22:26.743Z,100.00
2022-08-18T22:25:21.951Z,100.00
2022-08-18T22:28:08.809Z,100.00
2022-08-18T22:30:55.654Z,100.00
2022-08-18T22:33:42.613Z,100.00
2022-08-18T22:36:34.850Z,100.00
2022-08-18T22:39:26.199Z,100.00
2022-08-18T22:42:14.967Z,100.00
2022-08-18T22:45:04.811Z,100.00
2022-08-18T22:47:52.325Z,100.00
2022-08-18T22:50:39.240Z,100.00
2022-08-18T22:53:27.305Z,100.00
2022-08-18T22:56:14.125Z,100.00
2022-08-18T22:59:15.814Z,100.00
2022-08-18T23:02:04.392Z,100.00
2022-08-18T23:04:51.021Z,100.00
2022-08-18T23:07:38.255Z,100.00
2022-08-18T23:10:26.698Z,100.00
2022-08-18T23:13:13.309Z,100.00
2022-08-18T23:16:12.820Z,100.00
2022-08-18T23:19:06.767Z,100.00
2022-08-18T23:21:53.358Z,100.00
2022-08-18T23:24:40.550Z,100.00
2022-08-18T23:27:28.846Z,100.00
2022-08-18T23:30:15.808Z,100.00
2022-08-18T23:33:03.583Z,100.00
2022-08-18T23:35:50.420Z,100.00
2022-08-18T23:38:38.494Z,100.00
2022-08-18T23:41:24.981Z,100.00
2022-08-18T23:44:14.951Z,100.00
2022-08-18T23:47:01.926Z,100.00
2022-08-18T23:49:48.358Z,100.00
2022-08-18T23:52:35.162Z,100.00
2022-08-18T23:55:21.942Z,100.00
2022-08-18T23:58:09.559Z,100.00
